createdAt,value
2022-08-08T00:00:55.092Z,16.54
2022-08-08T00:01:08.747Z,16.53
2022-08-08T00:02:29.997Z,16.52
2022-08-08T00:03:01.109Z,16.51
2022-08-08T00:04:01.212Z,16.51
2022-08-08T00:05:01.385Z,16.50
2022-08-08T00:06:04.048Z,16.50
2022-08-08T00:07:09.250Z,16.49
2022-08-08T00:08:02.785Z,16.48
2022-08-08T00:09:02.853Z,16.47
2022-08-08T00:10:03.534Z,16.47
2022-08-08T00:11:08.043Z,16.47
2022-08-08T00:12:09.314Z,16.46
2022-08-08T00:13:04.303Z,16.46
2022-08-08T00:14:16.679Z,16.45
2022-08-08T00:15:05.380Z,16.45
2022-08-08T00:16:06.043Z,16.44
2022-08-08T00:17:22.449Z,16.43
2022-08-08T00:18:06.794Z,16.43
2022-08-08T00:19:07.039Z,16.42
2022-08-08T00:20:07.604Z,16.41
2022-08-08T00:21:08.018Z,16.39
2022-08-08T00:22:10.679Z,16.38
2022-08-08T00:23:08.296Z,16.36
2022-08-08T00:24:08.142Z,16.35
2022-08-08T00:25:08.707Z,16.34
2022-08-08T00:26:12.920Z,16.33
2022-08-08T00:26:26.055Z,16.16
2022-08-08T00:27:18.686Z,16.14
2022-08-08T00:28:34.088Z,16.13
2022-08-08T00:29:44.800Z,16.13
2022-08-08T00:30:19.437Z,16.13
2022-08-08T00:32:19.909Z,16.12
2022-08-08T00:32:35.233Z,16.12
2022-08-08T00:33:20.699Z,16.12
2022-08-08T00:34:21.687Z,16.11
2022-08-08T00:35:21.887Z,16.11
2022-08-08T00:36:25.552Z,16.10
2022-08-08T00:37:47.918Z,16.10
2022-08-08T00:38:31.111Z,16.10
2022-08-08T00:41:07.521Z,16.09
2022-08-08T00:41:10.572Z,16.09
2022-08-08T00:41:45.089Z,16.09
2022-08-08T00:42:33.247Z,16.09
2022-08-08T00:43:24.965Z,16.08
2022-08-08T00:44:25.138Z,16.08
2022-08-08T00:45:27.219Z,16.08
2022-08-08T00:46:26.375Z,16.07
2022-08-08T00:47:36.782Z,16.07
2022-08-08T00:48:29.989Z,16.06
2022-08-08T00:49:27.332Z,16.04
2022-08-08T00:50:27.885Z,16.03
2022-08-08T00:51:38.410Z,16.02
2022-08-08T00:52:38.849Z,16.01
2022-08-08T00:53:29.610Z,16.00
2022-08-08T00:54:29.754Z,16.00
2022-08-08T00:55:36.322Z,15.99
2022-08-08T00:55:53.775Z,15.92
2022-08-08T00:56:41.700Z,15.90
2022-08-08T00:57:40.721Z,15.90
2022-08-08T00:58:43.691Z,15.89
2022-08-08T00:59:43.078Z,15.89
2022-08-08T01:00:41.162Z,15.88
2022-08-08T01:01:41.960Z,15.88
2022-08-08T01:03:58.262Z,15.86
2022-08-08T01:03:58.262Z,15.87
2022-08-08T01:04:43.799Z,15.85
2022-08-08T01:05:59.244Z,15.84
2022-08-08T01:06:47.594Z,15.83
2022-08-08T01:07:55.310Z,15.82
2022-08-08T01:08:46.861Z,15.80
2022-08-08T01:09:48.713Z,15.79
2022-08-08T01:10:50.827Z,15.78
2022-08-08T01:11:52.052Z,15.75
2022-08-08T01:12:47.948Z,15.73
2022-08-08T01:13:53.115Z,15.72
2022-08-08T01:14:53.314Z,15.70
2022-08-08T01:15:54.183Z,15.67
2022-08-08T01:16:49.104Z,15.65
2022-08-08T01:17:53.328Z,15.63
2022-08-08T01:18:52.971Z,15.61
2022-08-08T01:20:01.793Z,15.60
2022-08-08T01:20:50.221Z,15.58
2022-08-08T01:22:07.381Z,15.57
2022-08-08T01:22:51.234Z,15.56
2022-08-08T01:24:05.434Z,15.55
2022-08-08T01:24:54.175Z,15.53
2022-08-08T01:25:54.062Z,15.52
2022-08-08T01:26:53.031Z,15.51
2022-08-08T01:28:00.226Z,15.51
2022-08-08T01:28:53.647Z,15.50
2022-08-08T01:29:05.674Z,15.36
2022-08-08T01:30:03.706Z,15.34
2022-08-08T01:31:05.930Z,15.34
2022-08-08T01:32:15.208Z,15.34
2022-08-08T01:33:23.363Z,15.34
2022-08-08T01:34:06.117Z,15.34
2022-08-08T01:35:11.751Z,15.34
2022-08-08T01:36:06.186Z,15.34
2022-08-08T01:37:06.826Z,15.33
2022-08-08T01:38:07.455Z,15.33
2022-08-08T01:39:07.893Z,15.33
2022-08-08T01:40:14.748Z,15.32
2022-08-08T01:41:09.984Z,15.32
2022-08-08T01:42:09.076Z,15.31
2022-08-08T01:43:10.546Z,15.30
2022-08-08T01:44:11.114Z,15.30
2022-08-08T01:45:13.877Z,15.29
2022-08-08T01:46:11.140Z,15.28
2022-08-08T01:47:59.051Z,15.28
2022-08-08T01:48:16.946Z,15.27
2022-08-08T01:49:14.256Z,15.26
2022-08-08T01:50:12.741Z,15.25
2022-08-08T01:51:29.999Z,15.23
2022-08-08T01:53:05.243Z,15.22
2022-08-08T01:55:15.628Z,15.21
2022-08-08T01:55:26.481Z,15.20
2022-08-08T01:55:45.066Z,15.19
2022-08-08T01:56:30.052Z,15.19
2022-08-08T01:57:17.516Z,15.18
2022-08-08T01:58:14.929Z,15.16
2022-08-08T01:58:38.723Z,14.92
2022-08-08T01:59:49.294Z,14.90
2022-08-08T02:00:26.199Z,14.90
2022-08-08T02:01:28.203Z,14.91
2022-08-08T02:02:34.941Z,14.92
2022-08-08T02:03:55.260Z,14.92
2022-08-08T02:04:28.577Z,14.93
2022-08-08T02:05:55.551Z,14.93
2022-08-08T02:06:31.623Z,14.93
2022-08-08T02:07:36.939Z,14.93
2022-08-08T02:08:33.840Z,14.93
2022-08-08T02:10:01.259Z,14.92
2022-08-08T02:10:44.819Z,14.92
2022-08-08T02:11:52.949Z,14.92
2022-08-08T02:12:33.215Z,14.91
2022-08-08T02:13:54.296Z,14.90
2022-08-08T02:14:34.244Z,14.89
2022-08-08T02:15:38.566Z,14.88
2022-08-08T02:16:35.524Z,14.87
2022-08-08T02:17:42.712Z,14.86
2022-08-08T02:18:36.038Z,14.86
2022-08-08T02:19:57.892Z,14.85
2022-08-08T02:21:01.899Z,14.85
2022-08-08T02:21:36.884Z,14.83
2022-08-08T02:22:52.705Z,14.82
2022-08-08T02:23:37.919Z,14.82
2022-08-08T02:24:39.400Z,14.81
2022-08-08T02:25:47.337Z,14.80
2022-08-08T02:26:38.790Z,14.79
2022-08-08T02:27:42.475Z,14.78
2022-08-08T02:27:47.598Z,14.67
2022-08-08T02:28:48.327Z,14.66
2022-08-08T02:29:51.949Z,14.66
2022-08-08T02:30:50.180Z,14.66
2022-08-08T02:32:00.748Z,14.66
2022-08-08T02:32:50.159Z,14.66
2022-08-08T02:34:08.296Z,14.65
2022-08-08T02:35:07.792Z,14.65
2022-08-08T02:36:04.107Z,14.64
2022-08-08T02:36:54.699Z,14.63
2022-08-08T02:37:57.136Z,14.62
2022-08-08T02:38:53.002Z,14.61
2022-08-08T02:39:58.553Z,14.60
2022-08-08T02:40:53.984Z,14.59
2022-08-08T02:41:59.469Z,14.58
2022-08-08T02:44:35.043Z,14.56
2022-08-08T02:44:35.807Z,14.57
2022-08-08T02:44:57.360Z,14.55
2022-08-08T02:45:57.502Z,14.54
2022-08-08T02:46:55.786Z,14.53
2022-08-08T02:47:56.717Z,14.52
2022-08-08T02:48:58.300Z,14.51
2022-08-08T02:49:58.223Z,14.51
2022-08-08T02:50:58.882Z,14.50
2022-08-08T02:52:02.075Z,14.50
2022-08-08T02:52:59.956Z,14.49
2022-08-08T02:54:00.477Z,14.48
2022-08-08T02:55:02.097Z,14.48
2022-08-08T02:56:01.642Z,14.47
2022-08-08T02:57:01.750Z,14.46
2022-08-08T02:58:02.319Z,14.46
2022-08-08T02:59:03.111Z,14.45
2022-08-08T03:00:31.142Z,14.44
2022-08-08T03:01:03.771Z,14.43
2022-08-08T03:02:04.260Z,14.42
2022-08-08T03:02:19.901Z,14.33
2022-08-08T03:03:13.114Z,14.32
2022-08-08T03:05:03.637Z,14.31
2022-08-08T03:05:13.916Z,14.32
2022-08-08T03:06:24.212Z,14.31
2022-08-08T03:07:14.990Z,14.31
2022-08-08T03:08:15.185Z,14.31
2022-08-08T03:09:15.709Z,14.31
2022-08-08T03:10:31.701Z,14.31
2022-08-08T03:11:25.560Z,14.30
2022-08-08T03:12:17.659Z,14.30
2022-08-08T03:13:33.897Z,14.31
2022-08-08T03:15:58.110Z,14.30
2022-08-08T03:15:59.561Z,14.30
2022-08-08T03:16:34.295Z,14.30
2022-08-08T03:17:20.072Z,14.29
2022-08-08T03:18:31.131Z,14.28
2022-08-08T03:19:20.593Z,14.27
2022-08-08T03:20:21.432Z,14.26
2022-08-08T03:21:26.997Z,14.25
2022-08-08T03:22:37.658Z,14.25
2022-08-08T03:23:23.431Z,14.24
2022-08-08T03:24:23.455Z,14.23
2022-08-08T03:25:23.732Z,14.22
2022-08-08T03:26:24.238Z,14.21
2022-08-08T03:27:27.287Z,14.21
2022-08-08T03:28:24.640Z,14.21
2022-08-08T03:29:51.170Z,14.20
2022-08-08T03:30:25.769Z,14.19
2022-08-08T03:31:26.272Z,14.19
2022-08-08T03:32:29.111Z,14.18
2022-08-08T03:33:54.589Z,14.17
2022-08-08T05:53:54.577Z,25.20
2022-08-08T05:54:27.283Z,25.22
2022-08-08T05:55:07.498Z,25.24
2022-08-08T05:56:07.762Z,25.30
2022-08-08T05:57:04.650Z,25.35
2022-08-08T05:58:17.864Z,25.40
2022-08-08T05:59:04.566Z,25.42
2022-08-08T06:00:23.691Z,25.43
2022-08-08T06:01:05.820Z,25.42
2022-08-08T06:02:07.166Z,25.41
2022-08-08T06:03:06.723Z,25.44
2022-08-08T06:04:13.579Z,25.48
2022-08-08T06:05:34.225Z,25.54
2022-08-08T06:06:07.928Z,25.58
2022-08-08T06:07:08.644Z,25.62
2022-08-08T06:08:28.721Z,25.70
2022-08-08T06:09:41.790Z,25.79
2022-08-08T06:10:10.709Z,25.89
2022-08-08T06:11:09.579Z,26.01
2022-08-08T06:12:09.605Z,26.11
2022-08-08T06:13:10.044Z,26.24
2022-08-08T06:14:12.765Z,26.38
2022-08-08T06:15:12.612Z,26.54
2022-08-08T06:16:12.736Z,26.63
2022-08-08T06:17:12.515Z,26.71
2022-08-08T06:18:18.596Z,26.79
2022-08-08T06:19:16.465Z,26.88
2022-08-08T06:20:14.010Z,26.97
2022-08-08T06:21:28.288Z,27.04
2022-08-08T06:22:59.314Z,27.11
2022-08-08T06:24:04.576Z,27.16
2022-08-08T06:24:13.725Z,26.61
2022-08-08T06:25:08.915Z,26.55
2022-08-08T06:26:44.082Z,26.55
2022-08-08T06:27:35.399Z,26.54
2022-08-08T06:28:36.249Z,26.54
2022-08-08T06:29:59.323Z,26.60
2022-08-08T06:30:36.925Z,26.63
2022-08-08T06:32:08.980Z,26.64
2022-08-08T06:32:37.573Z,26.63
2022-08-08T06:34:25.670Z,26.65
2022-08-08T06:34:38.513Z,26.59
2022-08-08T06:36:04.160Z,26.54
2022-08-08T06:36:53.701Z,26.53
2022-08-08T06:37:40.390Z,26.48
2022-08-08T06:38:40.531Z,26.46
2022-08-08T06:39:56.483Z,26.42
2022-08-08T06:40:48.710Z,26.40
2022-08-08T06:41:42.780Z,26.41
2022-08-08T06:42:43.119Z,26.39
2022-08-08T06:43:56.948Z,26.40
2022-08-08T06:44:43.788Z,26.44
2022-08-08T06:45:44.618Z,26.52
2022-08-08T06:46:44.793Z,26.58
2022-08-08T06:47:52.705Z,26.69
2022-08-08T06:48:45.939Z,26.72
2022-08-08T06:48:54.518Z,27.39
2022-08-08T06:49:57.148Z,27.31
2022-08-08T06:50:55.352Z,27.28
2022-08-08T06:51:57.908Z,27.26
2022-08-08T06:52:55.649Z,27.26
2022-08-08T06:53:56.595Z,27.28
2022-08-08T06:54:57.300Z,27.30
2022-08-08T06:56:02.802Z,27.30
2022-08-08T06:58:05.611Z,27.35
2022-08-08T07:00:01.764Z,27.42
2022-08-08T07:00:48.839Z,27.46
2022-08-08T07:02:17.649Z,27.50
2022-08-08T07:02:49.436Z,27.57
2022-08-08T07:04:35.678Z,27.61
2022-08-08T07:04:52.429Z,27.65
2022-08-08T07:06:02.183Z,27.66
2022-08-08T07:06:52.288Z,27.71
2022-08-08T07:08:35.248Z,27.78
2022-08-08T07:09:45.508Z,27.85
2022-08-08T07:10:36.295Z,27.91
2022-08-08T07:11:50.735Z,27.95
2022-08-08T07:12:36.833Z,28.01
2022-08-08T07:13:38.620Z,28.07
2022-08-08T07:14:37.725Z,28.15
2022-08-08T07:16:05.440Z,28.25
2022-08-08T07:16:50.995Z,28.34
2022-08-08T07:18:00.884Z,28.45
2022-08-08T07:18:40.573Z,28.52
2022-08-08T07:19:41.041Z,28.57
2022-08-08T07:20:50.612Z,28.63
2022-08-08T07:20:50.858Z,29.66
2022-08-08T07:21:50.367Z,29.62
2022-08-08T07:22:50.413Z,29.59
2022-08-08T07:24:01.598Z,29.58
2022-08-08T07:24:51.722Z,29.50
2022-08-08T07:25:54.789Z,29.44
2022-08-08T07:28:01.837Z,29.40
2022-08-08T07:28:40.229Z,29.35
2022-08-08T07:30:00.935Z,29.32
2022-08-08T07:30:41.588Z,29.33
2022-08-08T07:31:42.163Z,29.32
2022-08-08T07:32:42.734Z,29.30
2022-08-08T07:33:53.417Z,29.31
2022-08-08T07:34:48.321Z,29.35
2022-08-08T07:35:44.342Z,29.39
2022-08-08T07:36:48.205Z,29.45
2022-08-08T07:38:27.149Z,29.50
2022-08-08T07:39:45.291Z,29.50
2022-08-08T07:40:29.919Z,29.50
2022-08-08T07:41:28.625Z,29.46
2022-08-08T07:42:33.245Z,29.48
2022-08-08T07:43:35.842Z,29.49
2022-08-08T07:44:37.398Z,29.49
2022-08-08T07:45:34.959Z,29.49
2022-08-08T07:46:30.730Z,29.52
2022-08-08T07:47:39.150Z,29.56
2022-08-08T07:48:31.370Z,29.60
2022-08-08T07:49:31.810Z,29.64
2022-08-08T07:50:31.976Z,29.70
2022-08-08T07:51:45.042Z,29.75
2022-08-08T07:52:32.817Z,29.69
2022-08-08T07:52:43.724Z,28.58
2022-08-08T07:54:00.996Z,28.57
2022-08-08T07:54:42.221Z,28.57
2022-08-08T07:55:42.731Z,28.57
2022-08-08T07:56:42.906Z,28.57
2022-08-08T07:58:51.603Z,28.53
2022-08-08T07:59:55.077Z,28.48
2022-08-08T08:02:36.218Z,28.44
2022-08-08T08:03:48.964Z,28.37
2022-08-08T08:04:54.802Z,28.29
2022-08-08T08:07:56.164Z,28.20
2022-08-08T08:09:14.740Z,28.08
2022-08-08T08:10:14.907Z,27.94
2022-08-08T08:11:20.925Z,27.81
2022-08-08T08:12:35.546Z,27.68
2022-08-08T08:13:17.671Z,27.52
2022-08-08T08:14:15.644Z,27.36
2022-08-08T08:15:16.269Z,27.21
2022-08-08T08:16:17.343Z,27.08
2022-08-08T08:17:17.507Z,26.95
2022-08-08T08:18:18.269Z,26.84
2022-08-08T08:19:19.650Z,26.71
2022-08-08T08:20:20.552Z,26.61
2022-08-08T08:21:20.053Z,26.52
2022-08-08T08:22:25.540Z,26.44
2022-08-08T08:23:21.202Z,26.35
2022-08-08T08:24:21.544Z,26.25
2022-08-08T08:25:40.863Z,26.18
2022-08-08T08:26:27.574Z,26.12
2022-08-08T08:27:23.276Z,26.05
2022-08-08T08:28:24.140Z,25.98
2022-08-08T08:28:32.490Z,24.90
2022-08-08T08:29:35.676Z,24.90
2022-08-08T08:30:33.942Z,24.89
2022-08-08T08:31:34.829Z,24.90
2022-08-08T08:32:36.504Z,24.90
2022-08-08T08:33:35.067Z,24.91
2022-08-08T08:34:35.898Z,24.90
2022-08-08T08:36:20.155Z,24.89
2022-08-08T08:36:37.102Z,24.90
2022-08-08T08:37:59.160Z,24.90
2022-08-08T08:38:37.957Z,24.91
2022-08-08T08:39:59.363Z,24.90
2022-08-08T08:40:39.348Z,24.90
2022-08-08T08:41:40.107Z,24.89
2022-08-08T08:42:40.867Z,24.86
2022-08-08T08:43:42.345Z,24.85
2022-08-08T08:44:41.444Z,24.84
2022-08-08T08:45:42.187Z,24.84
2022-08-08T08:46:45.558Z,24.83
2022-08-08T08:47:44.969Z,24.83
2022-08-08T08:48:49.193Z,24.83
2022-08-08T08:49:44.306Z,24.83
2022-08-08T08:50:45.553Z,24.83
2022-08-08T08:51:51.711Z,24.84
2022-08-08T08:52:58.457Z,24.84
2022-08-08T08:53:54.553Z,24.84
2022-08-08T08:54:45.950Z,24.84
2022-08-08T08:55:46.395Z,24.83
2022-08-08T08:55:55.032Z,24.81
2022-08-08T08:56:55.789Z,24.77
2022-08-08T08:57:55.792Z,24.76
2022-08-08T08:58:56.500Z,24.74
2022-08-08T09:00:01.451Z,24.72
2022-08-08T09:01:09.318Z,24.71
2022-08-08T09:01:58.705Z,24.67
2022-08-08T09:02:59.364Z,24.63
2022-08-08T09:03:59.961Z,24.59
2022-08-08T09:05:01.413Z,24.57
2022-08-08T09:06:01.713Z,24.56
2022-08-08T09:07:02.138Z,24.56
2022-08-08T09:08:12.979Z,24.56
2022-08-08T09:09:02.021Z,24.58
2022-08-08T09:10:04.840Z,24.60
2022-08-08T09:11:03.565Z,24.61
2022-08-08T09:12:08.036Z,24.62
2022-08-08T09:13:03.962Z,24.62
2022-08-08T09:14:05.139Z,24.62
2022-08-08T09:15:06.159Z,24.64
2022-08-08T09:16:05.129Z,24.65
2022-08-08T09:17:12.910Z,24.67
2022-08-08T09:18:06.473Z,24.69
2022-08-08T09:19:08.281Z,24.69
2022-08-08T09:21:56.517Z,24.69
2022-08-08T09:22:00.317Z,24.70
2022-08-08T09:22:09.910Z,24.71
2022-08-08T09:22:26.200Z,24.98
2022-08-08T09:23:25.314Z,24.97
2022-08-08T09:24:20.201Z,24.97
2022-08-08T09:25:22.789Z,24.98
2022-08-08T09:26:21.410Z,24.99
2022-08-08T09:27:21.326Z,25.01
2022-08-08T09:28:37.244Z,25.02
2022-08-08T09:29:22.184Z,25.04
2022-08-08T09:30:22.125Z,25.07
2022-08-08T09:31:23.989Z,25.09
2022-08-08T09:32:22.936Z,25.12
2022-08-08T09:34:16.189Z,25.15
2022-08-08T09:34:32.137Z,25.19
2022-08-08T09:35:31.755Z,25.23
2022-08-08T09:36:24.965Z,25.27
2022-08-08T09:37:57.253Z,25.31
2022-08-08T09:38:28.543Z,25.35
2022-08-08T09:39:27.498Z,25.39
2022-08-08T09:40:41.707Z,25.42
2022-08-08T09:41:27.866Z,25.45
2022-08-08T09:42:28.141Z,25.47
2022-08-08T09:43:40.595Z,25.50
2022-08-08T09:44:29.905Z,25.53
2022-08-08T09:46:00.912Z,25.57
2022-08-08T09:46:30.990Z,25.61
2022-08-08T09:48:04.942Z,25.65
2022-08-08T09:48:35.660Z,25.69
2022-08-08T09:49:42.653Z,25.73
2022-08-08T09:50:34.515Z,25.77
2022-08-08T09:51:41.576Z,25.80
2022-08-08T09:53:00.315Z,25.84
2022-08-08T09:53:58.972Z,25.89
2022-08-08T09:54:37.455Z,25.94
2022-08-08T09:54:43.856Z,26.63
2022-08-08T09:56:05.389Z,26.62
2022-08-08T09:56:45.500Z,26.62
2022-08-08T09:57:45.691Z,26.62
2022-08-08T09:58:45.086Z,26.60
2022-08-08T09:59:57.099Z,26.58
2022-08-08T10:00:53.088Z,26.56
2022-08-08T10:01:59.689Z,26.55
2022-08-08T10:02:46.058Z,26.53
2022-08-08T10:03:46.708Z,26.50
2022-08-08T10:04:48.484Z,26.47
2022-08-08T10:05:48.267Z,26.44
2022-08-08T10:06:53.041Z,26.41
2022-08-08T10:07:49.049Z,26.38
2022-08-08T10:08:50.913Z,26.36
2022-08-08T10:09:59.132Z,26.36
2022-08-08T10:10:51.602Z,26.35
2022-08-08T10:12:25.892Z,26.33
2022-08-08T10:12:54.276Z,26.32
2022-08-08T10:13:57.277Z,26.31
2022-08-08T10:14:53.456Z,26.30
2022-08-08T10:16:00.418Z,26.30
2022-08-08T10:16:54.179Z,26.30
2022-08-08T10:18:11.818Z,26.29
2022-08-08T10:18:55.539Z,26.28
2022-08-08T10:19:58.172Z,26.29
2022-08-08T10:20:57.350Z,26.31
2022-08-08T10:21:56.877Z,26.32
2022-08-08T10:24:04.848Z,26.35
2022-08-08T10:27:13.718Z,26.35
2022-08-08T10:28:14.997Z,26.35
2022-08-08T10:28:18.764Z,26.28
2022-08-08T10:29:22.767Z,26.26
2022-08-08T10:31:00.506Z,26.26
2022-08-08T10:31:20.033Z,26.29
2022-08-08T10:32:20.705Z,26.31
2022-08-08T10:33:20.262Z,26.33
2022-08-08T10:34:21.570Z,26.35
2022-08-08T10:36:09.213Z,26.37
2022-08-08T10:36:22.996Z,26.40
2022-08-08T10:37:22.634Z,26.44
2022-08-08T10:38:23.475Z,26.47
2022-08-08T10:39:31.463Z,26.51
2022-08-08T10:40:25.045Z,26.56
2022-08-08T10:41:25.306Z,26.60
2022-08-08T10:42:27.172Z,26.64
2022-08-08T10:43:26.644Z,26.69
2022-08-08T10:44:26.983Z,26.74
2022-08-08T10:45:27.497Z,26.80
2022-08-08T10:46:30.378Z,26.86
2022-08-08T10:47:30.571Z,26.93
2022-08-08T10:48:29.576Z,27.00
2022-08-08T10:50:01.789Z,27.07
2022-08-08T10:50:30.717Z,27.14
2022-08-08T10:51:31.651Z,27.19
2022-08-08T10:52:31.425Z,27.23
2022-08-08T10:53:39.288Z,27.29
2022-08-08T10:54:32.045Z,27.35
2022-08-08T10:55:41.017Z,27.42
2022-08-08T10:56:34.601Z,27.48
2022-08-08T10:57:45.065Z,27.54
2022-08-08T10:58:33.774Z,27.59
2022-08-08T10:59:39.884Z,27.65
2022-08-08T10:59:42.706Z,28.62
2022-08-08T11:00:53.506Z,28.62
2022-08-08T11:01:43.811Z,28.63
2022-08-08T11:02:44.616Z,28.65
2022-08-08T11:04:00.888Z,28.66
2022-08-08T11:04:45.022Z,28.68
2022-08-08T11:05:45.564Z,28.69
2022-08-08T11:06:47.300Z,28.69
2022-08-08T11:08:31.567Z,28.65
2022-08-08T11:08:53.582Z,28.60
2022-08-08T11:09:46.908Z,28.52
2022-08-08T11:10:47.495Z,28.44
2022-08-08T11:12:06.126Z,28.36
2022-08-08T11:12:48.457Z,28.31
2022-08-08T11:13:58.255Z,28.26
2022-08-08T11:14:49.514Z,28.23
2022-08-08T11:15:54.790Z,28.22
2022-08-08T11:16:50.592Z,28.20
2022-08-08T11:18:01.051Z,28.18
2022-08-08T11:18:51.641Z,28.18
2022-08-08T11:19:52.788Z,28.18
2022-08-08T11:20:52.557Z,28.18
2022-08-08T11:21:55.775Z,28.18
2022-08-08T11:22:52.711Z,28.19
2022-08-08T11:24:02.238Z,28.20
2022-08-08T11:24:53.968Z,28.22
2022-08-08T11:25:57.125Z,28.23
2022-08-08T11:26:57.189Z,28.25
2022-08-08T11:27:55.289Z,28.28
2022-08-08T11:28:55.589Z,28.29
2022-08-08T11:29:04.836Z,28.54
2022-08-08T11:30:24.021Z,28.52
2022-08-08T11:31:05.585Z,28.53
2022-08-08T11:32:05.810Z,28.53
2022-08-08T11:33:12.356Z,28.51
2022-08-08T11:34:22.964Z,28.48
2022-08-08T11:35:24.424Z,28.47
2022-08-08T11:36:07.323Z,28.47
2022-08-08T11:37:15.108Z,28.46
2022-08-08T11:38:36.887Z,28.46
2022-08-08T11:39:11.034Z,28.46
2022-08-08T11:40:09.024Z,28.43
2022-08-08T11:41:10.087Z,28.41
2022-08-08T11:42:09.978Z,28.41
2022-08-08T11:43:11.526Z,28.42
2022-08-08T11:44:10.878Z,28.43
2022-08-08T11:45:11.176Z,28.45
2022-08-08T11:46:14.047Z,28.46
2022-08-08T11:47:12.884Z,28.48
2022-08-08T11:48:12.026Z,28.51
2022-08-08T11:49:14.622Z,28.54
2022-08-08T11:50:12.362Z,28.56
2022-08-08T11:51:38.672Z,28.59
2022-08-08T11:52:18.565Z,28.62
2022-08-08T11:53:13.975Z,28.66
2022-08-08T11:54:32.328Z,28.69
2022-08-08T11:55:15.568Z,28.72
2022-08-08T11:56:15.147Z,28.77
2022-08-08T11:57:16.979Z,28.81
2022-08-08T11:58:16.974Z,28.85
2022-08-08T11:58:25.641Z,29.09
2022-08-08T11:59:57.697Z,29.08
2022-08-08T12:00:26.703Z,29.09
2022-08-08T12:01:28.309Z,29.12
2022-08-08T12:02:32.652Z,29.15
2022-08-08T12:03:30.625Z,29.18
2022-08-08T12:04:28.574Z,29.22
2022-08-08T12:05:28.774Z,29.26
2022-08-08T12:06:29.465Z,29.28
2022-08-08T12:07:30.024Z,29.28
2022-08-08T12:08:30.473Z,29.27
2022-08-08T12:09:56.485Z,29.25
2022-08-08T12:10:31.488Z,29.23
2022-08-08T12:11:32.807Z,29.21
2022-08-08T12:12:32.289Z,29.16
2022-08-08T12:13:38.307Z,29.11
2022-08-08T12:14:32.339Z,29.08
2022-08-08T12:15:42.474Z,29.07
2022-08-08T12:16:44.683Z,29.06
2022-08-08T12:17:33.460Z,29.06
2022-08-08T12:18:34.308Z,29.07
2022-08-08T12:19:50.859Z,29.08
2022-08-08T12:20:35.672Z,29.09
2022-08-08T12:22:00.086Z,29.08
2022-08-08T12:22:44.906Z,29.06
2022-08-08T12:23:43.266Z,29.02
2022-08-08T12:24:38.772Z,28.99
2022-08-08T12:25:44.941Z,28.98
2022-08-08T12:26:41.556Z,29.00
2022-08-08T12:27:45.316Z,29.01
2022-08-08T12:27:49.197Z,29.37
2022-08-08T12:28:50.075Z,29.37
2022-08-08T12:29:50.621Z,29.37
2022-08-08T12:30:51.094Z,29.38
2022-08-08T12:31:53.208Z,29.40
2022-08-08T12:32:54.537Z,29.42
2022-08-08T12:34:03.785Z,29.44
2022-08-08T12:34:56.409Z,29.46
2022-08-08T12:35:53.342Z,29.46
2022-08-08T12:36:53.173Z,29.46
2022-08-08T12:38:01.857Z,29.47
2022-08-08T12:38:55.364Z,29.47
2022-08-08T12:40:00.721Z,29.49
2022-08-08T12:40:58.428Z,29.51
2022-08-08T12:42:01.302Z,29.54
2022-08-08T12:42:56.804Z,29.56
2022-08-08T12:43:59.767Z,29.56
2022-08-08T12:44:57.495Z,29.58
2022-08-08T12:46:03.441Z,29.60
2022-08-08T12:47:01.014Z,29.62
2022-08-08T12:48:10.037Z,29.63
2022-08-08T12:49:22.054Z,29.64
2022-08-08T12:50:00.467Z,29.67
2022-08-08T12:51:00.616Z,29.68
2022-08-08T12:52:01.284Z,29.69
2022-08-08T12:53:02.181Z,29.71
2022-08-08T12:54:04.687Z,29.73
2022-08-08T12:55:02.713Z,29.74
2022-08-08T12:56:17.605Z,29.76
2022-08-08T12:57:04.047Z,29.76
2022-08-08T12:58:04.415Z,29.77
2022-08-08T12:58:19.707Z,29.78
2022-08-08T12:59:16.755Z,29.75
2022-08-08T13:00:20.377Z,29.76
2022-08-08T13:01:24.427Z,29.77
2022-08-08T13:02:18.347Z,29.79
2022-08-08T13:03:18.266Z,29.80
2022-08-08T13:04:24.499Z,29.81
2022-08-08T13:05:26.569Z,29.79
2022-08-08T13:06:19.528Z,29.77
2022-08-08T13:08:03.487Z,29.76
2022-08-08T13:08:20.880Z,29.76
2022-08-08T13:09:21.457Z,29.74
2022-08-08T13:10:21.931Z,29.74
2022-08-08T13:11:22.023Z,29.75
2022-08-08T13:12:28.962Z,29.76
2022-08-08T13:13:23.448Z,29.77
2022-08-08T13:14:23.670Z,29.79
2022-08-08T13:15:23.761Z,29.82
2022-08-08T13:16:25.534Z,29.84
2022-08-08T13:18:08.902Z,29.86
2022-08-08T13:18:27.710Z,29.87
2022-08-08T13:19:25.950Z,29.89
2022-08-08T13:20:27.548Z,29.91
2022-08-08T13:21:49.094Z,29.93
2022-08-08T13:22:28.305Z,29.95
2022-08-08T13:23:35.880Z,29.96
2022-08-08T13:24:40.736Z,29.97
2022-08-08T13:25:29.770Z,29.96
2022-08-08T13:26:30.152Z,29.93
2022-08-08T13:26:39.828Z,29.07
2022-08-08T13:27:40.109Z,29.08
2022-08-08T13:28:42.122Z,29.09
2022-08-08T13:29:41.007Z,29.12
2022-08-08T13:30:41.689Z,29.14
2022-08-08T13:31:42.272Z,29.17
2022-08-08T13:32:42.548Z,29.20
2022-08-08T13:33:44.041Z,29.23
2022-08-08T13:34:43.120Z,29.26
2022-08-08T13:35:45.867Z,29.29
2022-08-08T13:36:44.588Z,29.33
2022-08-08T13:38:04.753Z,29.37
2022-08-08T13:38:45.221Z,29.40
2022-08-08T13:39:45.322Z,29.44
2022-08-08T13:40:46.161Z,29.49
2022-08-08T13:41:51.430Z,29.54
2022-08-08T13:42:47.025Z,29.59
2022-08-08T13:43:47.300Z,29.64
2022-08-08T13:44:48.921Z,29.69
2022-08-08T13:45:48.761Z,29.74
2022-08-08T13:46:48.892Z,29.79
2022-08-08T13:47:54.176Z,29.85
2022-08-08T13:50:32.239Z,29.90
2022-08-08T13:50:35.545Z,29.94
2022-08-08T13:50:56.936Z,29.99
2022-08-08T13:51:51.739Z,30.04
2022-08-08T13:52:55.256Z,30.09
2022-08-08T13:54:00.129Z,30.14
2022-08-08T13:54:53.807Z,30.20
2022-08-08T13:55:54.706Z,30.25
2022-08-08T13:56:03.852Z,31.06
2022-08-08T13:57:04.638Z,31.05
2022-08-08T13:58:07.798Z,31.04
2022-08-08T13:59:05.835Z,31.03
2022-08-08T14:00:05.876Z,31.03
2022-08-08T14:01:07.435Z,31.01
2022-08-08T14:02:07.789Z,31.01
2022-08-08T14:03:26.686Z,31.00
2022-08-08T14:04:08.317Z,30.99
2022-08-08T14:05:20.266Z,30.98
2022-08-08T14:06:08.662Z,30.96
2022-08-08T14:07:09.489Z,30.94
2022-08-08T14:08:16.765Z,30.93
2022-08-08T14:09:24.973Z,30.92
2022-08-08T14:10:16.941Z,30.91
2022-08-08T14:11:11.704Z,30.89
2022-08-08T14:12:12.485Z,30.88
2022-08-08T14:13:30.455Z,30.86
2022-08-08T14:14:13.020Z,30.86
2022-08-08T14:15:13.777Z,30.85
2022-08-08T14:16:16.822Z,30.84
2022-08-08T14:17:36.424Z,30.82
2022-08-08T14:18:36.841Z,30.82
2022-08-08T14:19:15.303Z,30.81
2022-08-08T14:20:55.915Z,30.80
2022-08-08T14:21:20.655Z,30.80
2022-08-08T14:22:18.586Z,30.78
2022-08-08T14:23:21.505Z,30.76
2022-08-08T14:24:17.563Z,30.74
2022-08-08T14:25:18.139Z,30.72
2022-08-08T14:26:19.103Z,30.70
2022-08-08T14:27:20.045Z,30.69
2022-08-08T14:28:20.666Z,30.66
2022-08-08T14:28:32.091Z,30.22
2022-08-08T14:29:30.644Z,30.20
2022-08-08T14:30:30.365Z,30.20
2022-08-08T14:32:05.567Z,30.21
2022-08-08T14:32:31.710Z,30.21
2022-08-08T14:33:36.419Z,30.20
2022-08-08T14:34:33.029Z,30.18
2022-08-08T14:35:35.924Z,30.17
2022-08-08T14:36:33.872Z,30.17
2022-08-08T14:37:43.163Z,30.17
2022-08-08T14:38:52.488Z,30.15
2022-08-08T14:39:49.004Z,30.14
2022-08-08T14:40:38.237Z,30.13
2022-08-08T14:41:53.708Z,30.13
2022-08-08T14:42:36.513Z,30.12
2022-08-08T14:44:09.821Z,30.11
2022-08-08T14:44:39.566Z,30.10
2022-08-08T14:46:01.756Z,30.08
2022-08-08T14:46:37.790Z,30.07
2022-08-08T14:47:38.185Z,30.06
2022-08-08T14:48:38.831Z,30.05
2022-08-08T14:50:02.400Z,30.06
2022-08-08T14:50:39.725Z,30.05
2022-08-08T14:51:52.202Z,30.04
2022-08-08T14:52:39.742Z,30.02
2022-08-08T14:53:54.642Z,30.00
2022-08-08T14:54:40.656Z,29.99
2022-08-08T14:55:42.044Z,29.99
2022-08-08T14:56:41.153Z,29.98
2022-08-08T14:58:02.919Z,29.98
2022-08-08T14:58:41.859Z,29.98
2022-08-08T14:58:54.448Z,30.07
2022-08-08T14:59:56.261Z,30.07
2022-08-08T15:00:54.739Z,30.07
2022-08-08T15:01:55.337Z,30.07
2022-08-08T15:02:58.758Z,30.06
2022-08-08T15:04:08.330Z,30.04
2022-08-08T15:04:56.515Z,30.03
2022-08-08T15:05:59.113Z,30.02
2022-08-08T15:06:57.239Z,30.00
2022-08-08T15:08:00.753Z,29.97
2022-08-08T15:08:58.650Z,29.94
2022-08-08T15:10:00.580Z,29.92